Time;durP1;ratioP1;P1;durP2;ratioP2;P2;SDS_P1;SDS_P2;PMS_P1;PMS_P2;Temp;Humidity;BMP_temperature;BMP_pressure;BME280_temperature;BME280_humidity;BME280_pressure;Samples;Min_cycle;Max_cycle;Signal;HPM_P1;HPM_P2
2023/03/02 00:01:40;;;;;;;8.27;2.20;;;3.80;99.90;;;;;;5009656;28;20085;-86
2023/03/02 00:04:31;;;;;;;7.28;2.92;;;3.80;99.90;;;;;;5009796;28;20092;-84
2023/03/02 00:07:26;;;;;;;8.02;2.72;;;3.80;99.90;;;;;;5009794;28;20494;-84
2023/03/02 00:10:13;;;;;;;10.57;2.37;;;3.80;99.90;;;;;;5010705;28;20061;-84
2023/03/02 00:12:59;;;;;;;6.93;2.80;;;3.80;99.90;;;;;;5010364;28;20289;-83
2023/03/02 00:15:45;;;;;;;9.30;3.00;;;3.80;99.90;;;;;;4995620;28;20060;-85
2023/03/02 00:18:31;;;;;;;6.30;3.17;;;3.70;99.90;;;;;;4993789;28;20081;-85
2023/03/02 00:21:17;;;;;;;10.30;3.95;;;3.70;99.90;;;;;;4995402;28;20141;-84
2023/03/02 00:24:04;;;;;;;14.93;6.45;;;3.70;99.90;;;;;;4995245;28;20048;-83
2023/03/02 00:26:50;;;;;;;10.43;4.57;;;3.70;99.90;;;;;;5009657;28;20045;-84
2023/03/02 00:29:36;;;;;;;12.05;4.97;;;3.70;99.90;;;;;;5009401;28;20045;-83
2023/03/02 00:32:23;;;;;;;10.80;5.40;;;3.70;99.90;;;;;;4993768;28;20057;-83
2023/03/02 00:35:10;;;;;;;13.98;6.05;;;3.70;99.90;;;;;;4985253;28;20058;-83
2023/03/02 00:37:56;;;;;;;12.45;5.85;;;3.70;99.90;;;;;;4997539;28;20050;-83
2023/03/02 00:40:48;;;;;;;14.13;7.05;;;3.70;99.90;;;;;;5000116;28;20050;-84
2023/03/02 00:43:34;;;;;;;12.48;6.28;;;3.70;99.90;;;;;;5014862;28;20057;-85
2023/03/02 00:46:22;;;;;;;14.80;7.38;;;3.70;99.90;;;;;;5013959;28;20046;-84
2023/03/02 00:49:09;;;;;;;12.38;7.22;;;3.70;99.90;;;;;;5018159;28;20061;-84
2023/03/02 00:51:55;;;;;;;16.65;6.80;;;3.70;99.90;;;;;;5016194;28;20049;-83
2023/03/02 00:54:41;;;;;;;10.35;6.15;;;3.70;99.90;;;;;;4999982;28;20105;-83
2023/03/02 00:57:27;;;;;;;11.38;6.97;;;3.70;99.90;;;;;;5005586;28;20133;-83
2023/03/02 01:00:14;;;;;;;9.25;5.38;;;3.70;99.90;;;;;;5007219;28;20054;-82
2023/03/02 01:03:00;;;;;;;19.60;8.50;;;3.60;99.90;;;;;;5016729;28;20050;-83
2023/03/02 01:05:47;;;;;;;10.65;6.28;;;3.60;99.90;;;;;;5020403;28;20098;-83
2023/03/02 01:08:33;;;;;;;12.35;7.03;;;3.60;99.90;;;;;;5018510;28;20054;-83
2023/03/02 01:11:21;;;;;;;10.50;6.47;;;3.50;99.90;;;;;;5013066;28;20050;-82
2023/03/02 01:14:07;;;;;;;12.63;6.07;;;3.50;99.90;;;;;;5013124;28;20162;-85
2023/03/02 01:16:54;;;;;;;11.60;6.63;;;3.40;99.90;;;;;;5013412;28;20131;-85
2023/03/02 01:19:41;;;;;;;10.50;6.05;;;3.30;99.90;;;;;;5013705;28;20046;-84
2023/03/02 01:22:28;;;;;;;11.70;6.72;;;3.20;99.90;;;;;;4999912;28;20065;-84
2023/03/02 01:25:14;;;;;;;10.80;6.10;;;3.10;99.90;;;;;;5012534;28;20108;-84
2023/03/02 01:28:00;;;;;;;10.82;5.60;;;3.00;99.90;;;;;;4994719;28;20466;-82
2023/03/02 01:30:46;;;;;;;9.93;5.78;;;2.90;99.90;;;;;;5012022;28;20050;-83
2023/03/02 01:33:32;;;;;;;13.38;5.78;;;2.80;99.90;;;;;;4998375;28;20053;-84
2023/03/02 01:36:20;;;;;;;10.35;5.43;;;2.70;99.90;;;;;;5011882;28;20092;-83
2023/03/02 01:39:06;;;;;;;13.35;6.68;;;2.70;99.90;;;;;;4999287;28;20054;-83
2023/03/02 01:41:52;;;;;;;10.20;5.18;;;2.60;99.90;;;;;;4998049;28;20054;-83
2023/03/02 01:44:45;;;;;;;11.63;5.50;;;2.50;99.90;;;;;;5013158;28;20062;-83
2023/03/02 01:47:35;;;;;;;12.85;6.30;;;2.40;99.90;;;;;;5012886;28;20099;-83
2023/03/02 01:50:26;;;;;;;10.63;6.80;;;2.50;99.90;;;;;;5012313;28;20109;-84
2023/03/02 01:53:14;;;;;;;12.02;6.22;;;2.40;99.90;;;;;;5012231;28;20133;-85
2023/03/02 01:56:02;;;;;;;9.43;4.65;;;2.40;99.90;;;;;;5012936;28;20521;-83
2023/03/02 01:58:53;;;;;;;11.82;5.65;;;2.40;99.90;;;;;;5014879;28;20553;-83
2023/03/02 02:01:43;;;;;;;11.50;6.10;;;2.40;99.90;;;;;;4998225;28;20502;-83
2023/03/02 02:04:31;;;;;;;13.65;6.18;;;2.40;99.90;;;;;;4994901;28;20060;-83
2023/03/02 02:07:17;;;;;;;16.02;6.88;;;2.40;99.90;;;;;;5011967;28;20042;-83
2023/03/02 02:10:04;;;;;;;12.25;6.28;;;2.40;99.90;;;;;;5011840;28;20387;-84
2023/03/02 02:12:50;;;;;;;10.82;6.40;;;2.40;99.90;;;;;;4996817;28;20061;-85
2023/03/02 02:15:37;;;;;;;15.30;7.38;;;2.40;99.90;;;;;;4995755;28;20144;-83
2023/03/02 02:18:25;;;;;;;12.40;6.32;;;2.40;99.90;;;;;;4994385;28;20056;-82
2023/03/02 02:21:12;;;;;;;13.05;6.95;;;2.50;99.90;;;;;;5012199;28;20045;-82
2023/03/02 02:24:20;;;;;;;12.98;7.20;;;2.50;99.90;;;;;;5010315;28;20046;-83
2023/03/02 02:27:06;;;;;;;12.43;7.22;;;2.60;99.90;;;;;;5011795;28;20045;-82
2023/03/02 02:29:55;;;;;;;17.88;8.88;;;2.60;99.90;;;;;;5012071;28;20454;-82
2023/03/02 02:32:43;;;;;;;16.73;8.23;;;2.60;99.90;;;;;;5013303;28;20041;-83
2023/03/02 02:35:30;;;;;;;21.55;8.95;;;2.70;99.90;;;;;;5013814;28;20060;-82
2023/03/02 02:38:19;;;;;;;19.00;9.43;;;2.70;99.90;;;;;;4980684;28;20050;-82
2023/03/02 02:41:11;;;;;;;19.77;9.35;;;2.70;99.90;;;;;;5011489;28;20050;-83
2023/03/02 02:43:58;;;;;;;22.05;9.75;;;2.80;99.90;;;;;;5012994;28;20414;-83
2023/03/02 02:46:44;;;;;;;22.95;11.77;;;2.80;99.90;;;;;;4980743;28;20056;-81
2023/03/02 02:49:36;;;;;;;21.70;10.32;;;2.80;99.90;;;;;;4994906;28;20505;-81
2023/03/02 02:52:27;;;;;;;19.00;10.00;;;2.80;99.90;;;;;;5010984;28;20096;-81
2023/03/02 02:55:18;;;;;;;23.13;11.50;;;2.90;99.90;;;;;;4993103;28;20418;-81
2023/03/02 02:58:34;;;;;;;27.13;14.02;;;2.90;99.90;;;;;;5010985;28;20544;-81
2023/03/02 03:01:24;;;;;;;;;;;2.90;99.90;;;;;;5010119;28;20383;-82
2023/03/02 03:04:17;;;;;;;28.08;14.75;;;3.00;99.90;;;;;;5011637;28;20023;-81
2023/03/02 03:07:05;;;;;;;27.58;13.77;;;3.00;99.90;;;;;;4996310;28;20045;-81
2023/03/02 03:10:09;;;;;;;26.85;15.13;;;3.00;99.90;;;;;;5011311;28;20474;-80
2023/03/02 03:12:55;;;;;;;30.48;15.27;;;3.10;99.90;;;;;;5010690;28;20415;-81
2023/03/02 03:15:42;;;;;;;24.55;13.85;;;3.10;99.90;;;;;;5010819;28;20119;-81
2023/03/02 03:18:30;;;;;;;24.25;13.88;;;3.20;99.90;;;;;;5010859;28;20050;-82
2023/03/02 03:21:19;;;;;;;25.02;13.73;;;3.20;99.90;;;;;;5010682;28;20204;-81
2023/03/02 03:24:06;;;;;;;29.95;14.50;;;3.20;99.90;;;;;;5011061;28;20053;-82
2023/03/02 03:26:53;;;;;;;30.85;16.35;;;3.20;99.90;;;;;;5013929;28;20049;-80
2023/03/02 03:29:49;;;;;;;31.17;15.30;;;3.30;99.90;;;;;;5010671;28;20577;-81
2023/03/02 03:32:35;;;;;;;30.52;16.17;;;3.30;99.90;;;;;;4980296;28;20060;-82
2023/03/02 03:35:21;;;;;;;32.17;15.98;;;3.20;99.90;;;;;;4992357;28;20058;-82
2023/03/02 03:38:07;;;;;;;30.85;16.17;;;3.30;99.90;;;;;;5010080;28;20046;-82
2023/03/02 03:40:54;;;;;;;31.10;16.13;;;3.30;99.90;;;;;;5009726;28;20521;-82
2023/03/02 03:43:40;;;;;;;28.58;15.40;;;3.30;99.90;;;;;;4995415;28;20049;-82
2023/03/02 03:46:26;;;;;;;30.23;16.30;;;3.20;99.90;;;;;;4993611;28;20050;-82
2023/03/02 03:49:13;;;;;;;33.85;16.70;;;3.20;99.90;;;;;;5010210;28;20426;-82
2023/03/02 03:51:59;;;;;;;34.25;16.98;;;3.30;99.90;;;;;;5010191;28;20061;-82
2023/03/02 03:54:45;;;;;;;34.83;17.73;;;3.30;99.90;;;;;;5009962;28;20136;-83
2023/03/02 03:57:31;;;;;;;35.35;17.90;;;3.30;99.90;;;;;;5010924;28;20140;-83
2023/03/02 04:00:18;;;;;;;31.02;16.38;;;3.30;99.90;;;;;;5015059;28;20506;-84
2023/03/02 04:03:04;;;;;;;36.17;18.58;;;3.30;99.90;;;;;;4996046;28;20050;-83
2023/03/02 04:05:50;;;;;;;29.80;16.40;;;3.30;99.90;;;;;;5009893;28;20046;-84
2023/03/02 04:08:37;;;;;;;29.95;15.52;;;3.30;99.90;;;;;;4979156;28;20151;-84
2023/03/02 04:11:23;;;;;;;32.25;17.08;;;3.40;99.90;;;;;;4993394;28;20054;-84
2023/03/02 04:14:10;;;;;;;30.73;16.88;;;3.30;99.90;;;;;;5015096;28;20119;-83
2023/03/02 04:16:57;;;;;;;36.63;17.95;;;3.40;99.90;;;;;;5006088;28;20096;-83
2023/03/02 04:19:44;;;;;;;41.60;22.42;;;3.40;99.90;;;;;;5014204;28;20061;-83
2023/03/02 04:22:30;;;;;;;42.08;20.10;;;3.40;99.90;;;;;;5013092;28;20050;-84
2023/03/02 04:25:20;;;;;;;41.47;21.00;;;3.40;99.90;;;;;;5013451;28;20046;-82
2023/03/02 04:28:06;;;;;;;39.90;21.23;;;3.40;99.90;;;;;;4999274;28;20112;-83
2023/03/02 04:30:52;;;;;;;49.15;24.48;;;3.40;99.90;;;;;;5012892;28;20050;-82
2023/03/02 04:33:38;;;;;;;49.90;25.08;;;3.40;99.90;;;;;;5017640;28;20050;-83
2023/03/02 04:36:25;;;;;;;51.42;23.27;;;3.40;99.90;;;;;;5013189;28;20116;-82
2023/03/02 04:39:14;;;;;;;52.10;25.42;;;3.40;99.90;;;;;;4999270;28;20053;-82
2023/03/02 04:42:00;;;;;;;58.95;27.75;;;3.50;99.90;;;;;;5012604;28;20057;-83
2023/03/02 04:44:47;;;;;;;60.72;27.13;;;3.40;99.90;;;;;;5013790;28;20046;-84
2023/03/02 04:47:33;;;;;;;63.50;28.65;;;3.40;99.90;;;;;;5019477;28;20054;-83
2023/03/02 04:50:19;;;;;;;64.95;30.92;;;3.40;99.90;;;;;;5013590;28;20506;-84
2023/03/02 04:53:05;;;;;;;66.35;29.27;;;3.40;99.90;;;;;;5013296;28;20053;-84
2023/03/02 04:55:51;;;;;;;77.85;29.05;;;3.40;99.90;;;;;;4996537;28;20375;-83
2023/03/02 04:58:37;;;;;;;78.88;31.98;;;3.40;99.90;;;;;;5013371;28;20105;-84
2023/03/02 05:01:24;;;;;;;76.85;31.00;;;3.40;99.90;;;;;;5013475;28;20046;-84
2023/03/02 05:04:10;;;;;;;83.63;32.20;;;3.40;99.90;;;;;;5016464;28;20137;-85
2023/03/02 05:06:57;;;;;;;82.60;33.15;;;3.40;99.90;;;;;;4995561;28;20053;-84
2023/03/02 05:09:43;;;;;;;90.72;33.50;;;3.40;99.90;;;;;;5013452;28;20060;-84
2023/03/02 05:12:30;;;;;;;84.30;32.30;;;3.40;99.90;;;;;;5013143;28;20085;-83
2023/03/02 05:15:16;;;;;;;73.13;31.67;;;3.40;99.90;;;;;;4998087;28;20422;-84
2023/03/02 05:18:04;;;;;;;73.57;30.23;;;3.40;99.90;;;;;;4999079;28;20046;-83
2023/03/02 05:20:52;;;;;;;73.53;29.75;;;3.40;99.90;;;;;;5016437;28;20050;-84
2023/03/02 05:23:38;;;;;;;65.32;27.33;;;3.40;99.90;;;;;;4998523;28;20141;-83
2023/03/02 05:26:24;;;;;;;57.75;24.65;;;3.40;99.90;;;;;;4994788;28;20060;-83
2023/03/02 05:29:10;;;;;;;52.05;22.83;;;3.40;99.90;;;;;;5012771;28;20100;-83
2023/03/02 05:31:57;;;;;;;47.00;21.58;;;3.30;99.90;;;;;;5013046;28;20512;-83
2023/03/02 05:34:43;;;;;;;50.10;23.00;;;3.30;99.90;;;;;;5012457;28;20053;-83
2023/03/02 05:37:29;;;;;;;53.65;24.40;;;3.30;99.90;;;;;;5001111;28;20062;-82
2023/03/02 05:40:18;;;;;;;46.38;22.55;;;3.30;99.90;;;;;;5012803;28;20049;-83
2023/03/02 05:43:04;;;;;;;45.25;20.88;;;3.20;99.90;;;;;;5012988;28;20452;-83
2023/03/02 05:45:50;;;;;;;45.95;21.77;;;3.30;99.90;;;;;;5012546;28;20057;-82
2023/03/02 05:48:37;;;;;;;38.13;20.02;;;3.20;99.90;;;;;;4981053;28;20126;-83
2023/03/02 05:51:23;;;;;;;43.35;20.48;;;3.30;99.90;;;;;;4994970;28;20065;-83
2023/03/02 05:54:09;;;;;;;37.83;20.23;;;3.30;99.90;;;;;;4998888;28;20168;-84
2023/03/02 05:56:55;;;;;;;41.97;19.85;;;3.20;99.90;;;;;;5012601;28;20100;-84
2023/03/02 05:59:41;;;;;;;43.15;19.02;;;3.20;99.90;;;;;;4994387;28;20422;-84
2023/03/02 06:02:27;;;;;;;41.60;20.13;;;3.20;99.90;;;;;;5013176;28;20107;-83
2023/03/02 06:05:16;;;;;;;42.15;21.80;;;3.20;99.90;;;;;;4997333;28;20462;-83
2023/03/02 06:08:03;;;;;;;51.47;23.17;;;3.20;99.90;;;;;;5011868;28;20490;-82
2023/03/02 06:10:49;;;;;;;47.15;22.88;;;3.30;99.90;;;;;;5001458;28;20065;-83
2023/03/02 06:13:36;;;;;;;46.33;24.15;;;3.30;99.90;;;;;;5000017;28;20053;-84
2023/03/02 06:16:22;;;;;;;42.13;21.30;;;3.30;99.90;;;;;;4981104;28;20050;-83
2023/03/02 06:19:08;;;;;;;48.35;23.42;;;3.30;99.90;;;;;;5011344;28;20042;-82
2023/03/02 06:21:54;;;;;;;48.08;22.58;;;3.30;99.90;;;;;;5011051;28;20499;-83
2023/03/02 06:24:40;;;;;;;45.20;21.77;;;3.30;99.90;;;;;;4994630;28;20490;-83
2023/03/02 06:27:26;;;;;;;43.75;20.73;;;3.30;99.90;;;;;;5011779;28;20050;-84
2023/03/02 06:30:14;;;;;;;43.92;21.48;;;3.20;99.90;;;;;;5014701;28;20134;-83
2023/03/02 06:33:00;;;;;;;47.60;20.92;;;3.30;99.90;;;;;;5012209;28;20108;-83
2023/03/02 06:35:47;;;;;;;46.95;23.20;;;3.30;99.90;;;;;;5008969;28;20053;-83
2023/03/02 06:38:33;;;;;;;42.22;20.80;;;3.30;99.90;;;;;;5012012;28;20185;-83
2023/03/02 06:41:19;;;;;;;42.03;19.40;;;3.30;99.90;;;;;;4979897;28;20062;-83
2023/03/02 06:44:06;;;;;;;39.25;19.83;;;3.20;99.90;;;;;;5012330;28;20525;-83
2023/03/02 06:46:52;;;;;;;39.60;19.52;;;3.20;99.90;;;;;;5012266;28;20077;-83
2023/03/02 06:49:38;;;;;;;47.03;19.80;;;3.20;99.90;;;;;;4996572;28;20107;-83
2023/03/02 06:52:25;;;;;;;47.90;20.85;;;3.20;99.90;;;;;;5010783;28;20053;-82
2023/03/02 06:55:12;;;;;;;48.80;21.65;;;3.30;99.90;;;;;;4998296;28;20058;-83
2023/03/02 06:57:58;;;;;;;45.67;22.13;;;3.30;99.90;;;;;;5011511;28;20061;-84
2023/03/02 07:00:44;;;;;;;46.55;20.77;;;3.30;99.90;;;;;;5011601;28;20050;-83
2023/03/02 07:03:30;;;;;;;43.85;19.58;;;3.30;99.90;;;;;;5012515;28;20050;-84
2023/03/02 07:06:16;;;;;;;36.30;17.45;;;3.30;99.90;;;;;;5017162;28;20054;-83
2023/03/02 07:09:03;;;;;;;36.22;19.35;;;3.30;99.90;;;;;;4993210;28;20629;-85
2023/03/02 07:11:49;;;;;;;48.75;21.92;;;3.30;99.90;;;;;;4980231;28;20061;-84
2023/03/02 07:14:35;;;;;;;45.53;20.30;;;3.40;99.90;;;;;;5009833;28;20077;-83
2023/03/02 07:17:21;;;;;;;42.45;19.38;;;3.40;99.90;;;;;;5010063;28;20089;-84
2023/03/02 07:20:09;;;;;;;36.47;18.08;;;3.40;99.90;;;;;;5011078;28;20457;-82
2023/03/02 07:22:56;;;;;;;30.88;15.23;;;3.40;99.90;;;;;;4980822;28;20111;-85
2023/03/02 07:25:42;;;;;;;37.85;17.52;;;3.50;99.90;;;;;;4984400;28;20062;-83
2023/03/02 07:28:28;;;;;;;36.75;15.75;;;3.40;99.90;;;;;;4992052;28;20062;-82
2023/03/02 07:31:14;;;;;;;39.60;17.40;;;3.40;99.90;;;;;;5010628;28;20107;-83
2023/03/02 07:34:00;;;;;;;48.08;21.60;;;3.50;99.90;;;;;;5010598;28;20056;-84
2023/03/02 07:36:46;;;;;;;42.65;19.42;;;3.50;99.90;;;;;;5009448;28;20054;-84
2023/03/02 07:39:32;;;;;;;44.88;20.98;;;3.60;99.90;;;;;;4992233;28;20120;-84
2023/03/02 07:42:18;;;;;;;42.55;19.13;;;3.60;99.90;;;;;;5010605;28;20050;-83
2023/03/02 07:45:05;;;;;;;45.17;19.75;;;3.60;99.90;;;;;;5013424;28;20041;-84
2023/03/02 07:47:51;;;;;;;42.25;18.70;;;3.60;99.90;;;;;;5009649;28;20049;-83
2023/03/02 07:50:37;;;;;;;41.28;19.52;;;3.70;99.90;;;;;;5008936;28;20061;-84
2023/03/02 07:53:23;;;;;;;39.08;18.52;;;3.70;99.90;;;;;;4979187;28;20499;-82
2023/03/02 07:56:11;;;;;;;41.85;20.77;;;3.80;99.90;;;;;;4996186;28;20065;-84
2023/03/02 07:58:57;;;;;;;45.20;20.70;;;3.80;99.90;;;;;;5010053;28;20049;-84
2023/03/02 08:01:43;;;;;;;46.08;20.63;;;3.90;99.90;;;;;;4992945;28;20060;-84
2023/03/02 08:04:29;;;;;;;48.72;21.00;;;3.90;99.90;;;;;;5011412;28;20057;-83
2023/03/02 08:07:15;;;;;;;56.03;22.77;;;3.90;99.90;;;;;;5009378;28;20061;-84
2023/03/02 08:10:01;;;;;;;65.07;23.75;;;3.90;99.90;;;;;;5009328;28;20140;-83
2023/03/02 08:12:48;;;;;;;53.75;21.02;;;3.90;99.90;;;;;;4994840;28;20041;-83
2023/03/02 08:15:34;;;;;;;60.47;23.45;;;3.90;99.90;;;;;;5010062;28;20124;-83
2023/03/02 08:18:20;;;;;;;68.20;26.13;;;4.00;99.90;;;;;;4992545;28;20162;-83
2023/03/02 08:21:12;;;;;;;61.40;23.10;;;4.00;99.90;;;;;;4998027;28;20053;-84
2023/03/02 08:23:58;;;;;;;66.70;25.05;;;4.10;99.90;;;;;;4994127;28;20479;-83
2023/03/02 08:26:44;;;;;;;60.47;23.75;;;4.10;99.90;;;;;;4991547;28;20056;-84
2023/03/02 08:29:30;;;;;;;58.25;23.80;;;4.20;99.90;;;;;;5009739;28;20053;-84
2023/03/02 08:32:16;;;;;;;52.13;22.90;;;4.20;99.90;;;;;;5009097;28;20124;-84
2023/03/02 08:35:03;;;;;;;67.35;25.27;;;4.20;99.90;;;;;;4995180;28;20061;-84
2023/03/02 08:37:49;;;;;;;52.53;21.75;;;4.30;99.90;;;;;;4999354;28;20058;-83
2023/03/02 08:40:35;;;;;;;57.55;22.02;;;4.50;99.90;;;;;;5009357;28;20085;-83
2023/03/02 08:43:23;;;;;;;55.13;20.13;;;4.50;99.90;;;;;;4991246;28;20053;-83
2023/03/02 08:46:11;;;;;;;57.22;22.13;;;4.60;99.90;;;;;;4995167;28;20498;-82
2023/03/02 08:48:57;;;;;;;52.55;20.30;;;4.80;99.90;;;;;;5009770;28;20490;-83
2023/03/02 08:51:44;;;;;;;57.42;24.35;;;5.00;99.90;;;;;;5009420;28;20057;-83
2023/03/02 08:54:33;;;;;;;60.35;23.38;;;5.20;99.90;;;;;;5010957;28;20050;-84
2023/03/02 08:57:19;;;;;;;60.33;22.85;;;5.30;99.90;;;;;;5011756;28;20054;-82
2023/03/02 09:00:08;;;;;;;59.92;23.77;;;5.40;99.90;;;;;;4994931;28;20081;-82
2023/03/02 09:02:54;;;;;;;60.85;22.38;;;5.50;99.90;;;;;;5013695;28;20413;-83
2023/03/02 09:05:40;;;;;;;53.60;21.55;;;5.40;99.90;;;;;;4995553;28;20422;-84
2023/03/02 09:08:26;;;;;;;58.10;20.88;;;5.50;99.90;;;;;;5012821;28;20108;-83
2023/03/02 09:11:12;;;;;;;53.90;22.55;;;5.60;99.90;;;;;;5013579;28;20077;-83
2023/03/02 09:13:58;;;;;;;59.75;24.58;;;5.60;99.90;;;;;;5014344;28;20053;-83
2023/03/02 09:16:45;;;;;;;49.85;20.92;;;5.70;99.90;;;;;;5012268;28;20086;-83
2023/03/02 09:19:40;;;;;;;54.95;20.23;;;5.80;99.90;;;;;;5012961;28;20065;-82
2023/03/02 09:22:27;;;;;;;52.88;21.77;;;5.80;99.90;;;;;;4994439;28;20060;-83
2023/03/02 09:25:14;;;;;;;52.15;20.15;;;5.80;99.90;;;;;;5012896;28;20061;-83
2023/03/02 09:28:00;;;;;;;45.03;19.95;;;5.80;99.90;;;;;;4983423;28;20049;-84
2023/03/02 09:30:51;;;;;;;52.75;20.13;;;6.10;99.90;;;;;;4998269;28;20061;-83
2023/03/02 09:33:37;;;;;;;48.72;21.23;;;6.30;99.90;;;;;;5012399;28;20053;-82
2023/03/02 09:36:25;;;;;;;53.00;21.33;;;6.40;99.90;;;;;;4994341;28;20107;-82
2023/03/02 09:39:11;;;;;;;58.08;21.55;;;6.30;99.90;;;;;;5012313;28;20053;-82
2023/03/02 09:42:13;;;;;;;52.10;20.98;;;6.20;99.90;;;;;;5012793;28;20056;-82
2023/03/02 09:45:18;;;;;;;48.90;18.00;;;6.20;99.90;;;;;;4995441;28;20053;-82
2023/03/02 09:48:04;;;;;;;49.72;19.92;;;6.20;99.90;;;;;;5012226;28;20441;-83
2023/03/02 09:51:22;;;;;;;49.80;19.42;;;6.20;99.90;;;;;;5018321;28;20086;-83
2023/03/02 09:54:10;;;;;;;51.05;20.17;;;6.20;99.90;;;;;;4981782;28;20042;-83
2023/03/02 09:56:57;;;;;;;44.47;18.45;;;6.20;99.90;;;;;;5011813;28;20054;-83
2023/03/02 09:59:50;;;;;;;44.17;18.50;;;6.20;99.90;;;;;;4981640;28;20056;-83
2023/03/02 10:02:45;;;;;;;44.50;19.33;;;6.30;99.90;;;;;;5012866;28;20057;-82
2023/03/02 10:05:52;;;;;;;44.27;19.40;;;6.30;99.90;;;;;;5012512;28;20457;-83
2023/03/02 10:08:41;;;;;;;47.40;17.70;;;6.40;99.90;;;;;;5012031;28;20367;-84
2023/03/02 10:11:32;;;;;;;42.17;18.60;;;6.50;99.90;;;;;;4996523;28;20482;-82
2023/03/02 10:14:48;;;;;;;41.10;18.70;;;6.80;99.90;;;;;;5015411;28;20041;-82
2023/03/02 10:17:53;;;;;;;41.72;18.45;;;7.20;99.90;;;;;;5009179;28;20417;-83
2023/03/02 10:20:56;;;;;;;41.80;16.10;;;7.30;99.90;;;;;;5012193;28;20100;-83
2023/03/02 10:24:03;;;;;;;31.40;13.35;;;7.10;99.90;;;;;;5011724;28;20049;-82
2023/03/02 10:26:54;;;;;;;35.13;16.23;;;7.10;99.90;;;;;;5012590;28;20046;-83
2023/03/02 10:29:46;;;;;;;41.42;15.27;;;7.10;99.90;;;;;;5011864;28;20090;-83
2023/03/02 10:32:37;;;;;;;34.45;14.55;;;7.20;99.90;;;;;;4995583;28;20056;-83
2023/03/02 10:35:25;;;;;;;32.35;15.00;;;7.40;99.90;;;;;;4994245;28;20515;-83
2023/03/02 10:38:20;;;;;;;37.42;16.10;;;7.50;99.90;;;;;;5011161;28;20431;-83
2023/03/02 10:41:11;;;;;;;34.67;15.15;;;7.40;99.90;;;;;;4981283;28;20077;-84
2023/03/02 10:44:03;;;;;;;30.67;12.80;;;7.40;99.90;;;;;;4998641;28;20077;-84
2023/03/02 10:46:52;;;;;;;31.05;13.65;;;7.40;99.90;;;;;;5010141;28;20538;-83
2023/03/02 10:49:41;;;;;;;31.80;14.38;;;7.20;99.90;;;;;;4994113;28;20823;-83
2023/03/02 10:52:28;;;;;;;29.80;12.88;;;7.20;99.90;;;;;;4991628;28;20050;-83
2023/03/02 10:55:14;;;;;;;25.15;11.98;;;7.00;99.90;;;;;;4991511;28;20050;-82
2023/03/02 10:58:30;;;;;;;29.17;13.98;;;7.10;99.90;;;;;;4992254;28;20097;-83
2023/03/02 11:01:18;;;;;;;27.35;12.32;;;7.10;99.90;;;;;;4994336;28;20058;-82
2023/03/02 11:04:12;;;;;;;29.27;14.00;;;7.10;99.90;;;;;;4993343;28;20054;-84
2023/03/02 11:07:16;;;;;;;26.30;12.15;;;7.30;99.90;;;;;;4992389;28;20046;-83
2023/03/02 11:10:17;;;;;;;31.67;14.45;;;7.20;99.90;;;;;;4993604;28;20124;-83
2023/03/02 11:13:22;;;;;;;25.83;12.07;;;7.50;99.90;;;;;;4994312;28;20109;-83
2023/03/02 11:16:17;;;;;;;25.85;11.45;;;7.70;99.90;;;;;;4993218;28;20054;-83
2023/03/02 11:19:18;;;;;;;22.85;10.90;;;7.80;99.90;;;;;;4994588;28;20160;-84
2023/03/02 11:22:26;;;;;;;20.02;10.65;;;7.80;99.90;;;;;;4995773;28;20062;-84
2023/03/02 11:25:41;;;;;;;21.08;10.52;;;7.90;99.90;;;;;;4999127;28;20073;-83
2023/03/02 11:28:48;;;;;;;21.58;10.63;;;8.30;99.90;;;;;;4995765;28;20058;-85
2023/03/02 11:31:44;;;;;;;23.83;9.80;;;8.30;99.90;;;;;;4998562;28;20141;-84
2023/03/02 11:34:42;;;;;;;24.48;12.68;;;8.30;99.90;;;;;;4990834;28;20089;-84
2023/03/02 11:37:41;;;;;;;21.75;11.05;;;8.30;99.90;;;;;;4992465;28;20046;-84
2023/03/02 11:40:50;;;;;;;23.67;10.32;;;8.70;99.90;;;;;;4976375;28;20197;-84
2023/03/02 11:43:36;;;;;;;19.83;10.57;;;9.30;99.90;;;;;;4993067;28;20050;-84
2023/03/02 11:46:29;;;;;;;16.70;8.85;;;9.80;99.90;;;;;;5004497;28;20061;-84
2023/03/02 11:49:32;;;;;;;18.67;9.65;;;9.90;99.90;;;;;;4977186;28;20109;-82
2023/03/02 11:52:21;;;;;;;17.88;9.43;;;10.00;99.90;;;;;;5002521;28;20148;-84
2023/03/02 11:55:21;;;;;;;19.38;8.98;;;10.20;99.90;;;;;;5010241;28;20136;-83
2023/03/02 11:58:20;;;;;;;15.80;7.00;;;10.10;99.90;;;;;;5010897;28;20049;-84
2023/03/02 12:01:11;;;;;;;13.88;7.32;;;9.80;99.90;;;;;;5010585;28;20046;-84
2023/03/02 12:04:31;;;;;;;11.85;6.45;;;9.90;99.90;;;;;;5001950;28;20050;-84
2023/03/02 12:07:26;;;;;;;13.07;6.68;;;9.60;99.90;;;;;;4985486;28;20145;-83
2023/03/02 12:10:29;;;;;;;11.63;6.47;;;9.30;99.90;;;;;;5013344;28;20141;-83
2023/03/02 12:13:27;;;;;;;13.70;6.35;;;9.30;99.90;;;;;;5010288;28;20056;-83
2023/03/02 12:16:39;;;;;;;10.50;6.18;;;9.30;99.90;;;;;;5010688;28;20058;-84
2023/03/02 12:19:37;;;;;;;10.77;5.97;;;9.10;99.90;;;;;;4994205;28;20498;-84
2023/03/02 12:22:29;;;;;;;10.77;6.75;;;9.00;99.90;;;;;;5011914;28;20053;-84
2023/03/02 12:25:18;;;;;;;11.25;6.13;;;9.10;99.90;;;;;;4997267;28;20046;-84
2023/03/02 12:28:04;;;;;;;13.70;6.82;;;9.20;99.90;;;;;;5013544;28;20129;-83
2023/03/02 12:31:06;;;;;;;12.38;6.72;;;9.00;99.90;;;;;;5012695;28;20056;-84
2023/03/02 12:33:52;;;;;;;12.88;7.35;;;9.00;99.90;;;;;;5012418;28;20057;-84
2023/03/02 12:36:42;;;;;;;11.70;6.70;;;8.80;99.90;;;;;;5015613;28;20160;-84
2023/03/02 12:39:37;;;;;;;16.85;6.95;;;8.80;99.90;;;;;;5013806;28;20054;-84
2023/03/02 12:42:32;;;;;;;11.52;6.85;;;8.70;99.90;;;;;;5013078;28;20450;-83
2023/03/02 12:45:43;;;;;;;12.67;6.97;;;8.90;99.90;;;;;;5012724;28;20061;-83
2023/03/02 12:48:56;;;;;;;12.50;6.78;;;9.00;99.90;;;;;;5014290;28;20064;-82
2023/03/02 12:51:59;;;;;;;11.35;6.68;;;9.10;99.90;;;;;;5021099;28;20050;-83
2023/03/02 12:54:45;;;;;;;11.82;6.75;;;9.10;99.90;;;;;;4996066;28;20069;-83
2023/03/02 12:57:32;;;;;;;13.48;6.22;;;9.80;99.90;;;;;;5013906;28;20042;-83
2023/03/02 13:00:22;;;;;;;11.63;6.13;;;10.00;99.90;;;;;;5019511;28;20057;-84
2023/03/02 13:03:13;;;;;;;12.02;6.25;;;10.20;99.90;;;;;;5016924;28;20046;-83
2023/03/02 13:06:11;;;;;;;12.35;6.40;;;11.40;99.90;;;;;;5015674;28;20050;-82
2023/03/02 13:08:59;;;;;;;11.52;5.85;;;12.40;99.90;;;;;;5013304;28;20490;-83
2023/03/02 13:11:47;;;;;;;11.60;6.40;;;12.40;99.90;;;;;;5012885;28;20460;-83
2023/03/02 13:14:33;;;;;;;13.32;6.55;;;13.40;99.60;;;;;;5012422;28;20590;-84
2023/03/02 13:17:29;;;;;;;9.77;5.88;;;13.30;98.50;;;;;;4996412;28;20057;-82
2023/03/02 13:20:17;;;;;;;10.27;5.55;;;12.90;98.30;;;;;;5012445;28;20045;-83
2023/03/02 13:23:03;;;;;;;12.70;6.72;;;13.00;98.50;;;;;;5013131;28;20099;-83
2023/03/02 13:25:52;;;;;;;9.85;4.50;;;14.10;97.90;;;;;;4997179;28;20050;-82
2023/03/02 13:28:39;;;;;;;9.18;4.97;;;14.40;95.80;;;;;;5013025;28;20064;-83
2023/03/02 13:31:25;;;;;;;13.63;5.13;;;14.00;96.30;;;;;;5012964;28;20405;-84
2023/03/02 13:34:29;;;;;;;10.75;5.75;;;14.10;96.30;;;;;;4997929;28;20817;-83
2023/03/02 13:37:37;;;;;;;10.95;6.20;;;14.90;94.10;;;;;;5001100;28;20606;-84
2023/03/02 13:40:28;;;;;;;9.23;4.85;;;14.50;94.60;;;;;;5013425;28;20050;-83
2023/03/02 13:43:37;;;;;;;13.95;6.50;;;13.90;95.20;;;;;;5012232;28;20045;-83
2023/03/02 13:46:31;;;;;;;12.73;5.55;;;13.90;94.70;;;;;;4998243;28;20062;-83
2023/03/02 13:49:32;;;;;;;8.80;4.82;;;13.80;95.90;;;;;;4996083;28;20046;-83
2023/03/02 13:52:26;;;;;;;12.77;5.65;;;14.00;95.50;;;;;;4991257;28;20055;-84
2023/03/02 13:55:14;;;;;;;13.30;5.32;;;15.20;95.10;;;;;;4992984;28;20086;-84
2023/03/02 13:58:01;;;;;;;11.88;6.03;;;16.20;93.40;;;;;;4992511;28;20050;-84
2023/03/02 14:00:48;;;;;;;8.15;5.13;;;15.40;92.80;;;;;;4992887;28;20054;-83
2023/03/02 14:03:35;;;;;;;8.85;5.18;;;14.70;93.40;;;;;;4993233;28;20140;-85
2023/03/02 14:06:21;;;;;;;10.60;5.18;;;14.80;94.00;;;;;;4997389;28;20042;-83
2023/03/02 14:09:07;;;;;;;9.10;5.40;;;15.20;93.50;;;;;;4996914;28;20089;-82
2023/03/02 14:11:55;;;;;;;11.13;5.43;;;16.10;93.00;;;;;;4993162;28;20050;-82
2023/03/02 14:14:42;;;;;;;8.68;4.82;;;16.50;91.70;;;;;;4994266;28;20038;-82
2023/03/02 14:17:28;;;;;;;9.77;5.93;;;15.80;91.80;;;;;;4994400;28;20046;-84
2023/03/02 14:20:18;;;;;;;11.48;5.75;;;15.90;91.70;;;;;;4979891;28;20058;-83
2023/03/02 14:23:04;;;;;;;9.00;5.28;;;15.80;91.40;;;;;;4993309;28;20507;-84
2023/03/02 14:25:52;;;;;;;10.88;4.95;;;15.70;92.00;;;;;;4994857;28;20042;-85
2023/03/02 14:28:38;;;;;;;12.75;5.13;;;16.60;91.10;;;;;;4997628;28;20412;-85
2023/03/02 14:31:26;;;;;;;12.15;4.03;;;17.20;89.90;;;;;;4976938;28;20145;-83
2023/03/02 14:34:13;;;;;;;8.43;5.22;;;18.30;86.50;;;;;;4990960;28;20510;-84
2023/03/02 14:37:06;;;;;;;9.93;5.13;;;17.40;84.80;;;;;;4991420;28;20133;-84